createdAt,value
2023-01-23T00:00:42.262Z,2.84
2023-01-23T00:01:42.282Z,2.75
2023-01-23T00:02:42.394Z,2.85
2023-01-23T00:03:42.272Z,2.82
2023-01-23T00:04:42.229Z,2.85
2023-01-23T00:05:42.234Z,2.79
2023-01-23T00:06:42.215Z,2.79
2023-01-23T00:07:42.228Z,2.85
2023-01-23T00:08:42.211Z,2.84
2023-01-23T00:09:42.175Z,2.87
2023-01-23T00:10:42.146Z,2.78
2023-01-23T00:11:42.186Z,2.82
2023-01-23T00:12:42.165Z,2.84
2023-01-23T00:13:42.127Z,2.79
2023-01-23T00:14:42.139Z,2.79
2023-01-23T00:15:42.113Z,2.81
2023-01-23T00:16:42.090Z,2.82
2023-01-23T00:17:42.076Z,2.72
2023-01-23T00:18:42.196Z,2.71
2023-01-23T00:19:42.077Z,2.84
2023-01-23T00:20:42.047Z,2.78
2023-01-23T00:21:42.094Z,2.66
2023-01-23T00:22:42.056Z,2.77
2023-01-23T00:23:42.014Z,2.64
2023-01-23T00:24:42.022Z,2.77
2023-01-23T00:25:41.988Z,2.69
2023-01-23T00:26:42.003Z,2.77
2023-01-23T00:27:41.991Z,2.79
2023-01-23T00:28:41.995Z,2.85
2023-01-23T00:29:41.952Z,2.84
2023-01-23T00:30:42.033Z,2.85
2023-01-23T00:31:42.166Z,2.78
2023-01-23T00:32:41.925Z,2.79
2023-01-23T00:33:41.928Z,2.77
2023-01-23T00:34:42.023Z,2.84
2023-01-23T00:35:41.932Z,2.84
2023-01-23T00:36:41.881Z,2.82
2023-01-23T00:37:41.888Z,2.79
2023-01-23T00:38:41.884Z,2.79
2023-01-23T00:39:41.864Z,2.79
2023-01-23T00:40:41.845Z,2.79
2023-01-23T00:41:41.828Z,2.82
2023-01-23T00:42:41.833Z,2.84
2023-01-23T00:43:41.823Z,2.81
2023-01-23T00:44:41.804Z,2.81
2023-01-23T00:45:41.827Z,2.85
2023-01-23T00:46:41.815Z,2.72
2023-01-23T00:47:41.758Z,2.78
2023-01-23T00:48:41.764Z,2.81
2023-01-23T00:49:41.728Z,2.79
2023-01-23T00:50:41.847Z,2.81
2023-01-23T00:51:41.732Z,2.82
2023-01-23T00:52:41.713Z,2.84
2023-01-23T00:53:41.715Z,2.92
2023-01-23T00:54:41.701Z,2.92
2023-01-23T00:55:41.677Z,2.82
2023-01-23T00:56:41.676Z,2.87
2023-01-23T00:57:41.660Z,2.87
2023-01-23T00:58:42.842Z,2.87
2023-01-23T00:59:41.645Z,2.81
2023-01-23T01:00:41.633Z,2.90
2023-01-23T01:01:41.692Z,2.79
2023-01-23T01:02:41.660Z,2.84
2023-01-23T01:03:41.610Z,2.90
2023-01-23T01:04:41.607Z,2.84
2023-01-23T01:05:41.574Z,2.81
2023-01-23T01:06:41.686Z,2.89
2023-01-23T01:07:41.560Z,2.85
2023-01-23T01:08:41.550Z,2.84
2023-01-23T01:09:41.578Z,2.81
2023-01-23T01:10:41.530Z,2.79
2023-01-23T01:11:41.500Z,2.81
2023-01-23T01:12:41.576Z,2.89
2023-01-23T01:13:41.496Z,2.82
2023-01-23T01:14:41.506Z,2.78
2023-01-23T01:15:41.457Z,2.82
2023-01-23T01:16:41.459Z,2.82
2023-01-23T01:17:41.465Z,2.87
2023-01-23T01:18:41.440Z,2.81
2023-01-23T01:19:41.432Z,2.82
2023-01-23T01:20:41.421Z,2.89
2023-01-23T01:21:41.409Z,2.81
2023-01-23T01:22:41.508Z,2.81
2023-01-23T01:23:41.395Z,2.82
2023-01-23T01:24:41.384Z,2.79
2023-01-23T01:25:41.354Z,2.78
2023-01-23T01:26:41.361Z,2.69
2023-01-23T01:27:41.324Z,2.84
2023-01-23T01:28:41.396Z,2.79
2023-01-23T01:29:41.303Z,2.81
2023-01-23T01:30:41.388Z,2.81
2023-01-23T01:31:41.332Z,2.81
2023-01-23T01:32:41.278Z,2.82
2023-01-23T01:33:41.334Z,2.77
2023-01-23T01:34:41.260Z,2.84
2023-01-23T01:35:41.276Z,2.72
2023-01-23T01:36:41.257Z,2.77
2023-01-23T01:37:41.213Z,2.66
2023-01-23T01:38:41.328Z,2.69
2023-01-23T01:39:41.213Z,2.75
2023-01-23T01:40:41.210Z,2.77
2023-01-23T01:41:41.208Z,2.82
2023-01-23T01:42:41.184Z,2.81
2023-01-23T01:43:41.160Z,2.74
2023-01-23T01:44:41.185Z,2.81
2023-01-23T01:45:41.166Z,2.72
2023-01-23T01:46:41.179Z,2.72
2023-01-23T01:47:41.121Z,2.81
2023-01-23T01:48:41.123Z,2.74
2023-01-23T01:49:41.126Z,2.79
2023-01-23T01:50:41.098Z,2.69
2023-01-23T01:51:41.096Z,2.74
2023-01-23T01:52:41.120Z,2.67
2023-01-23T01:53:41.094Z,2.79
2023-01-23T01:54:41.155Z,2.85
2023-01-23T01:55:41.040Z,2.77
2023-01-23T01:56:41.034Z,2.82
2023-01-23T01:57:41.032Z,2.78
2023-01-23T01:58:41.005Z,2.84
2023-01-23T01:59:41.807Z,2.74
2023-01-23T02:00:40.995Z,2.81
2023-01-23T02:01:41.011Z,2.81
2023-01-23T02:02:40.967Z,2.81
2023-01-23T02:03:40.971Z,2.79
2023-01-23T02:04:40.935Z,2.84
2023-01-23T02:05:40.924Z,2.82
2023-01-23T02:06:40.919Z,2.75
2023-01-23T02:07:40.923Z,2.75
2023-01-23T02:08:40.894Z,2.77
2023-01-23T02:09:40.894Z,2.79
2023-01-23T02:10:41.002Z,2.84
2023-01-23T02:11:40.920Z,2.69
2023-01-23T02:12:40.891Z,2.79
2023-01-23T02:13:40.848Z,2.74
2023-01-23T02:14:40.848Z,2.84
2023-01-23T02:15:40.848Z,2.75
2023-01-23T02:16:40.970Z,2.72
2023-01-23T02:17:40.839Z,2.74
2023-01-23T02:18:40.836Z,2.77
2023-01-23T02:19:40.799Z,2.72
2023-01-23T02:20:40.818Z,2.72
2023-01-23T02:21:40.757Z,2.74
2023-01-23T02:22:40.742Z,2.69
2023-01-23T02:23:40.770Z,2.79
2023-01-23T02:24:40.731Z,2.77
2023-01-23T02:25:40.754Z,2.74
2023-01-23T02:26:40.813Z,2.81
2023-01-23T02:27:40.696Z,2.84
2023-01-23T02:28:40.701Z,2.85
2023-01-23T02:29:40.674Z,2.79
2023-01-23T02:30:40.733Z,2.72
2023-01-23T02:31:40.749Z,2.71
2023-01-23T02:32:40.659Z,2.74
2023-01-23T02:33:40.628Z,2.72
2023-01-23T02:34:40.636Z,2.69
2023-01-23T02:35:40.592Z,2.71
2023-01-23T02:36:40.623Z,2.74
2023-01-23T02:37:40.597Z,2.63
2023-01-23T02:38:40.589Z,2.69
2023-01-23T02:39:40.590Z,2.67
2023-01-23T02:40:40.558Z,2.74
2023-01-23T02:41:40.541Z,2.64
2023-01-23T02:42:40.677Z,2.63
2023-01-23T02:43:40.550Z,2.64
2023-01-23T02:44:40.543Z,2.61
2023-01-23T02:45:40.558Z,2.57
2023-01-23T02:46:40.493Z,2.59
2023-01-23T02:47:40.492Z,2.64
2023-01-23T02:48:40.499Z,2.61
2023-01-23T02:49:40.550Z,2.60
2023-01-23T02:50:40.466Z,2.57
2023-01-23T02:51:40.431Z,2.57
2023-01-23T02:52:40.443Z,2.59
2023-01-23T02:53:40.411Z,2.60
2023-01-23T02:54:40.447Z,2.56
2023-01-23T02:55:40.425Z,2.59
2023-01-23T02:56:40.434Z,2.57
2023-01-23T02:57:40.402Z,2.59
2023-01-23T02:58:40.468Z,2.59
2023-01-23T02:59:40.350Z,2.57
2023-01-23T03:00:40.376Z,2.56
2023-01-23T03:01:40.343Z,2.59
2023-01-23T03:02:40.336Z,2.59
2023-01-23T03:03:40.318Z,2.63
2023-01-23T03:04:40.302Z,2.60
2023-01-23T03:05:40.303Z,2.59
2023-01-23T03:06:40.328Z,2.66
2023-01-23T03:07:40.269Z,2.57
2023-01-23T03:08:40.256Z,2.61
2023-01-23T03:09:40.302Z,2.49
2023-01-23T03:10:40.232Z,2.56
2023-01-23T03:11:40.301Z,2.54
2023-01-23T03:12:40.212Z,2.64
2023-01-23T03:13:40.280Z,2.56
2023-01-23T03:14:40.332Z,2.56
2023-01-23T03:15:40.179Z,2.60
2023-01-23T03:16:40.271Z,2.52
2023-01-23T03:17:40.187Z,2.54
2023-01-23T03:18:53.510Z,2.53
2023-01-23T03:19:41.233Z,2.54
2023-01-23T03:20:40.151Z,2.59
2023-01-23T03:21:40.235Z,2.60
2023-01-23T03:22:40.134Z,2.63
2023-01-23T03:23:40.122Z,2.56
2023-01-23T03:24:40.087Z,2.56
2023-01-23T03:25:40.095Z,2.56
2023-01-23T03:26:40.078Z,2.66
2023-01-23T03:27:40.091Z,2.60
2023-01-23T03:28:40.038Z,2.67
2023-01-23T03:29:40.037Z,2.60
2023-01-23T03:30:40.171Z,2.64
2023-01-23T03:31:40.076Z,2.69
2023-01-23T03:32:40.023Z,2.60
2023-01-23T03:33:40.042Z,2.67
2023-01-23T03:34:39.987Z,2.71
2023-01-23T03:35:40.031Z,2.61
2023-01-23T03:36:39.955Z,2.63
2023-01-23T03:37:39.974Z,2.64
2023-01-23T03:38:39.964Z,2.63
2023-01-23T03:39:39.933Z,2.60
2023-01-23T03:40:39.926Z,2.54
2023-01-23T03:41:39.937Z,2.60
2023-01-23T03:42:39.913Z,2.64
2023-01-23T03:43:39.898Z,2.49
2023-01-23T03:44:39.880Z,2.63
2023-01-23T03:45:39.862Z,2.60
2023-01-23T03:46:39.960Z,2.48
2023-01-23T03:47:39.912Z,2.56
2023-01-23T03:48:39.837Z,2.49
2023-01-23T03:49:39.815Z,2.53
2023-01-23T03:50:39.816Z,2.48
2023-01-23T03:51:39.835Z,2.46
2023-01-23T03:52:39.809Z,2.49
2023-01-23T03:53:39.799Z,2.36
2023-01-23T03:54:39.767Z,2.48
2023-01-23T03:55:39.769Z,2.34
2023-01-23T03:56:39.758Z,2.48
2023-01-23T03:57:39.806Z,2.38
2023-01-23T03:58:39.723Z,2.39
2023-01-23T03:59:39.712Z,2.28
2023-01-23T04:00:39.734Z,2.27
2023-01-23T04:01:39.716Z,2.36
2023-01-23T04:02:39.782Z,2.28
2023-01-23T04:03:39.678Z,2.23
2023-01-23T04:04:39.679Z,2.28
2023-01-23T04:05:39.637Z,2.20
2023-01-23T04:06:39.640Z,2.25
2023-01-23T04:07:39.625Z,2.23
2023-01-23T04:08:39.630Z,2.12
2023-01-23T04:09:39.619Z,2.17
2023-01-23T04:10:39.599Z,2.17
2023-01-23T04:11:39.585Z,2.14
2023-01-23T04:12:39.589Z,2.16
2023-01-23T04:13:39.632Z,2.12
2023-01-23T04:14:39.567Z,2.12
2023-01-23T04:15:39.529Z,2.14
2023-01-23T04:16:40.405Z,2.20
2023-01-23T04:17:42.011Z,2.18
2023-01-23T04:18:39.625Z,2.14
2023-01-23T04:19:39.518Z,2.16
2023-01-23T04:20:39.484Z,2.10
2023-01-23T04:21:39.516Z,2.18
2023-01-23T04:22:39.470Z,2.12
2023-01-23T04:23:39.473Z,2.18
2023-01-23T04:24:39.457Z,2.25
2023-01-23T04:25:39.428Z,2.24
2023-01-23T04:26:39.423Z,2.23
2023-01-23T04:27:39.414Z,2.27
2023-01-23T04:28:39.468Z,2.25
2023-01-23T04:29:39.390Z,2.25
2023-01-23T04:30:39.452Z,2.28
2023-01-23T04:31:39.472Z,2.34
2023-01-23T04:32:39.366Z,2.21
2023-01-23T04:33:39.365Z,2.35
2023-01-23T04:34:39.461Z,2.28
2023-01-23T04:35:39.318Z,2.28
2023-01-23T04:36:39.316Z,2.23
2023-01-23T04:37:39.304Z,2.23
2023-01-23T04:38:39.293Z,2.36
2023-01-23T04:39:39.304Z,2.24
2023-01-23T04:40:39.265Z,2.36
2023-01-23T04:41:39.275Z,2.38
2023-01-23T04:42:41.111Z,2.28
2023-01-23T04:43:39.259Z,2.39
2023-01-23T04:44:39.243Z,2.30
2023-01-23T04:45:39.288Z,2.43
2023-01-23T04:46:39.210Z,2.45
2023-01-23T04:47:39.193Z,2.38
2023-01-23T04:48:39.220Z,2.38
2023-01-23T04:49:39.204Z,2.35
2023-01-23T04:50:39.289Z,2.28
2023-01-23T04:51:39.150Z,2.43
2023-01-23T04:52:39.146Z,2.41
2023-01-23T04:53:39.160Z,2.30
2023-01-23T04:54:39.110Z,2.23
2023-01-23T04:55:39.103Z,2.36
2023-01-23T04:56:39.135Z,2.31
2023-01-23T04:57:39.093Z,2.34
2023-01-23T04:58:39.109Z,2.31
2023-01-23T04:59:39.071Z,2.28
2023-01-23T05:00:39.069Z,2.27
2023-01-23T05:01:39.095Z,2.31
2023-01-23T05:02:39.146Z,2.34
2023-01-23T05:03:39.042Z,2.21
2023-01-23T05:04:39.046Z,2.21
2023-01-23T05:05:39.017Z,2.23
2023-01-23T05:06:39.096Z,2.23
2023-01-23T05:07:38.979Z,2.17
2023-01-23T05:08:38.981Z,2.17
2023-01-23T05:09:38.962Z,2.23
2023-01-23T05:10:38.970Z,2.24
2023-01-23T05:11:38.974Z,2.14
2023-01-23T05:12:38.938Z,2.23
2023-01-23T05:13:38.939Z,2.21
2023-01-23T05:14:38.916Z,2.21
2023-01-23T05:15:38.956Z,2.14
2023-01-23T05:16:38.900Z,2.12
2023-01-23T05:17:38.922Z,2.16
2023-01-23T05:18:38.906Z,2.16
2023-01-23T05:19:38.848Z,2.02
2023-01-23T05:20:38.839Z,2.06
2023-01-23T05:21:38.840Z,2.03
2023-01-23T05:22:38.936Z,2.06
2023-01-23T05:23:38.852Z,2.09
2023-01-23T05:24:38.816Z,2.02
2023-01-23T05:25:38.791Z,2.00
2023-01-23T05:26:38.784Z,2.10
2023-01-23T05:27:38.778Z,2.10
2023-01-23T05:28:38.773Z,2.06
2023-01-23T05:29:38.818Z,2.12
2023-01-23T05:30:38.833Z,2.16
2023-01-23T05:31:38.851Z,2.12
2023-01-23T05:32:38.714Z,2.20
2023-01-23T05:33:38.705Z,2.23
2023-01-23T05:34:38.705Z,2.16
2023-01-23T05:35:38.729Z,2.18
2023-01-23T05:36:38.674Z,2.21
2023-01-23T05:37:38.670Z,2.09
2023-01-23T05:38:38.668Z,2.16
2023-01-23T05:39:38.645Z,2.23
2023-01-23T05:40:38.632Z,2.20
2023-01-23T05:41:38.646Z,2.18
2023-01-23T05:42:38.638Z,2.18
2023-01-23T05:43:38.592Z,2.20
2023-01-23T05:44:38.615Z,2.23
2023-01-23T05:45:38.644Z,2.35
2023-01-23T05:46:38.587Z,2.30
2023-01-23T05:47:38.588Z,2.23
2023-01-23T05:48:38.584Z,2.27
2023-01-23T05:49:38.541Z,2.12
2023-01-23T05:50:38.523Z,2.16
2023-01-23T05:51:38.552Z,2.20
2023-01-23T05:52:38.502Z,2.12
2023-01-23T05:53:38.489Z,2.25
2023-01-23T05:54:38.617Z,2.12
2023-01-23T05:55:38.480Z,2.21
2023-01-23T05:56:38.450Z,2.18
2023-01-23T05:57:38.487Z,2.23
2023-01-23T05:58:38.451Z,2.25
2023-01-23T05:59:38.455Z,2.17
2023-01-23T06:00:38.415Z,2.20
2023-01-23T06:01:38.427Z,2.24
2023-01-23T06:02:38.491Z,2.23
2023-01-23T06:03:38.469Z,2.14
2023-01-23T06:04:38.401Z,2.14
2023-01-23T06:05:38.369Z,2.12
2023-01-23T06:06:38.390Z,2.16
2023-01-23T06:07:38.349Z,2.16
2023-01-23T06:08:38.386Z,2.18
2023-01-23T06:09:38.316Z,2.18
2023-01-23T06:10:38.470Z,2.23
2023-01-23T06:11:38.306Z,2.17
2023-01-23T06:12:38.296Z,2.21
2023-01-23T06:13:38.283Z,2.27
2023-01-23T06:14:38.284Z,2.34
2023-01-23T06:15:38.321Z,2.21
2023-01-23T06:16:38.252Z,2.21
2023-01-23T06:17:38.281Z,2.27
2023-01-23T06:18:38.240Z,2.23
2023-01-23T06:19:38.270Z,2.31
2023-01-23T06:20:38.194Z,2.28
2023-01-23T06:21:38.193Z,2.30
2023-01-23T06:22:38.186Z,2.23
2023-01-23T06:23:38.198Z,2.17
2023-01-23T06:24:38.183Z,2.23
2023-01-23T06:25:38.169Z,2.16
2023-01-23T06:26:38.243Z,2.20
2023-01-23T06:27:38.146Z,2.21
2023-01-23T06:28:38.148Z,2.27
2023-01-23T06:29:38.114Z,2.21
2023-01-23T06:30:38.160Z,2.30
2023-01-23T06:31:38.145Z,2.25
2023-01-23T06:32:38.072Z,2.34
2023-01-23T06:33:39.069Z,2.43
2023-01-23T06:34:38.068Z,2.35
2023-01-23T06:35:38.073Z,2.42
2023-01-23T06:36:38.042Z,2.35
2023-01-23T06:37:38.039Z,2.36
2023-01-23T06:38:38.013Z,2.35
2023-01-23T06:39:38.032Z,2.45
2023-01-23T06:40:37.987Z,2.43
2023-01-23T06:41:38.032Z,2.36
2023-01-23T06:42:38.069Z,2.36
2023-01-23T06:43:38.014Z,2.36
2023-01-23T06:44:37.953Z,2.35
2023-01-23T06:45:37.936Z,2.43
2023-01-23T06:46:37.980Z,2.48
2023-01-23T06:47:37.931Z,2.48
2023-01-23T06:48:37.891Z,2.39
2023-01-23T06:49:37.905Z,2.41
2023-01-23T06:50:37.914Z,2.39
2023-01-23T06:51:37.945Z,2.35
2023-01-23T06:52:37.875Z,2.45
2023-01-23T06:53:37.852Z,2.31
2023-01-23T06:54:37.845Z,2.35
2023-01-23T06:55:37.843Z,2.39
2023-01-23T06:56:37.823Z,2.39
2023-01-23T06:57:37.807Z,2.42
2023-01-23T06:58:37.919Z,2.43
2023-01-23T06:59:37.789Z,2.46
2023-01-23T07:00:37.761Z,2.42
2023-01-23T07:01:37.796Z,2.52
2023-01-23T07:02:37.766Z,2.39
2023-01-23T07:03:37.752Z,2.46
2023-01-23T07:04:37.725Z,2.45
2023-01-23T07:05:37.725Z,2.43
2023-01-23T07:06:37.712Z,2.43
2023-01-23T07:07:37.731Z,2.49
2023-01-23T07:08:37.747Z,2.45
2023-01-23T07:09:37.674Z,2.43
2023-01-23T07:10:37.688Z,2.48
2023-01-23T07:11:37.688Z,2.45
2023-01-23T07:12:37.644Z,2.46
2023-01-23T07:13:37.624Z,2.46
2023-01-23T07:14:37.721Z,2.52
2023-01-23T07:15:39.605Z,2.49
2023-01-23T07:16:37.601Z,2.42
2023-01-23T07:17:37.594Z,2.48
2023-01-23T07:18:37.573Z,2.46
2023-01-23T07:19:37.574Z,2.42
2023-01-23T07:20:37.556Z,2.54
2023-01-23T07:21:37.619Z,2.49
2023-01-23T07:22:37.549Z,2.49
2023-01-23T07:23:37.560Z,2.48
2023-01-23T07:24:37.511Z,2.52
2023-01-23T07:25:37.511Z,2.53
2023-01-23T07:26:37.510Z,2.45
2023-01-23T07:27:37.497Z,2.54
2023-01-23T07:28:37.476Z,2.61
2023-01-23T07:29:37.462Z,2.56
2023-01-23T07:30:37.613Z,2.48
2023-01-23T07:31:37.514Z,2.52
2023-01-23T07:32:37.455Z,2.45
2023-01-23T07:33:37.430Z,2.46
2023-01-23T07:34:37.443Z,2.49
2023-01-23T07:35:37.423Z,2.52
2023-01-23T07:36:37.400Z,2.48
2023-01-23T07:37:37.402Z,2.56
2023-01-23T07:38:37.363Z,2.54
2023-01-23T07:39:37.357Z,2.45
2023-01-23T07:40:37.349Z,2.54
2023-01-23T07:41:37.390Z,2.56
2023-01-23T07:42:37.319Z,2.53
2023-01-23T07:43:37.302Z,2.56
2023-01-23T07:44:37.324Z,2.61
2023-01-23T07:45:37.321Z,2.57
2023-01-23T07:46:37.438Z,2.63
2023-01-23T07:47:37.272Z,2.61
2023-01-23T07:48:37.259Z,2.69
2023-01-23T07:49:37.253Z,2.61
2023-01-23T07:50:37.248Z,2.56
2023-01-23T07:51:37.248Z,2.61
2023-01-23T07:52:37.231Z,2.61
2023-01-23T07:53:37.203Z,2.60
2023-01-23T07:54:37.222Z,2.63
2023-01-23T07:55:37.204Z,2.64
2023-01-23T07:56:37.230Z,2.72
2023-01-23T07:57:37.175Z,2.67
2023-01-23T07:58:37.167Z,2.71
2023-01-23T07:59:37.142Z,2.71
2023-01-23T08:00:37.181Z,2.71
2023-01-23T08:01:37.135Z,2.63
2023-01-23T08:02:37.237Z,2.69
2023-01-23T08:03:37.246Z,2.77
2023-01-23T08:04:37.085Z,2.67
2023-01-23T08:05:37.089Z,2.64
2023-01-23T08:06:37.061Z,2.72
2023-01-23T08:07:37.103Z,2.63
2023-01-23T08:08:37.041Z,2.71
2023-01-23T08:09:37.049Z,2.69
2023-01-23T08:10:37.049Z,2.71
2023-01-23T08:11:37.032Z,2.63
2023-01-23T08:12:37.015Z,2.72
2023-01-23T08:13:37.004Z,2.69
2023-01-23T08:14:36.983Z,2.74
2023-01-23T08:15:36.991Z,2.72
2023-01-23T08:16:37.069Z,2.72
2023-01-23T08:17:37.025Z,2.77
2023-01-23T08:18:37.059Z,2.82
2023-01-23T08:19:36.937Z,2.85
2023-01-23T08:20:36.915Z,2.82
2023-01-23T08:21:36.909Z,2.84
2023-01-23T08:22:36.915Z,2.81
2023-01-23T08:23:36.935Z,2.81
2023-01-23T08:24:36.868Z,2.79
2023-01-23T08:25:36.861Z,2.85
2023-01-23T08:26:36.911Z,2.85
2023-01-23T08:27:36.991Z,2.81
2023-01-23T08:28:36.865Z,2.87
2023-01-23T08:29:36.819Z,2.78
2023-01-23T08:30:36.830Z,2.82
2023-01-23T08:31:36.841Z,2.69
2023-01-23T08:32:36.803Z,2.67
2023-01-23T08:33:36.785Z,2.77
2023-01-23T08:34:36.792Z,2.84
2023-01-23T08:35:36.768Z,2.82
2023-01-23T08:36:36.743Z,2.85
2023-01-23T08:37:36.784Z,2.84
2023-01-23T08:38:36.741Z,2.82
2023-01-23T08:39:36.732Z,2.87
2023-01-23T08:40:36.717Z,2.77
2023-01-23T08:41:36.690Z,2.89
2023-01-23T08:42:36.766Z,2.84
2023-01-23T08:43:36.668Z,2.92
2023-01-23T08:44:36.669Z,2.85
2023-01-23T08:45:36.692Z,2.84
2023-01-23T08:46:36.674Z,2.84
2023-01-23T08:47:37.154Z,2.85
2023-01-23T08:48:36.629Z,2.90
2023-01-23T08:49:36.606Z,2.93
2023-01-23T08:50:36.704Z,2.96
2023-01-23T08:51:36.575Z,2.90
2023-01-23T08:52:36.580Z,2.89
2023-01-23T08:53:36.581Z,2.90
2023-01-23T08:54:36.558Z,2.96
2023-01-23T08:55:36.549Z,2.99
2023-01-23T08:56:36.553Z,2.92
2023-01-23T08:57:36.570Z,2.90
2023-01-23T08:58:36.514Z,2.96
2023-01-23T08:59:36.509Z,2.90
2023-01-23T09:00:36.521Z,3.00
2023-01-23T09:01:36.490Z,2.82
2023-01-23T09:02:36.482Z,2.84
2023-01-23T09:03:36.452Z,2.75
2023-01-23T09:04:36.452Z,2.81
2023-01-23T09:05:36.452Z,2.87
2023-01-23T09:06:36.561Z,2.90
2023-01-23T09:07:36.419Z,2.85
2023-01-23T09:08:36.432Z,2.93
2023-01-23T09:09:36.612Z,2.87
2023-01-23T09:10:36.413Z,2.87
2023-01-23T09:11:37.001Z,2.90
2023-01-23T09:12:36.657Z,2.87
2023-01-23T09:13:36.366Z,2.82
2023-01-23T09:14:36.367Z,2.84
2023-01-23T09:15:36.394Z,2.81
2023-01-23T09:16:36.407Z,2.82
2023-01-23T09:17:36.326Z,2.87
2023-01-23T09:18:36.337Z,2.84
2023-01-23T09:19:36.343Z,2.93
2023-01-23T09:20:36.311Z,2.90
2023-01-23T09:21:36.290Z,2.95
2023-01-23T09:22:36.371Z,2.97
2023-01-23T09:23:36.270Z,2.84
2023-01-23T09:24:36.233Z,2.85
2023-01-23T09:25:36.214Z,2.82
2023-01-23T09:26:36.223Z,2.79
2023-01-23T09:27:36.202Z,2.89
2023-01-23T09:28:36.189Z,2.93
2023-01-23T09:29:36.236Z,2.87
2023-01-23T09:30:36.181Z,2.96
2023-01-23T09:31:36.195Z,3.11
2023-01-23T09:32:36.151Z,3.02
2023-01-23T09:33:36.129Z,3.11
2023-01-23T09:34:36.189Z,3.15
2023-01-23T09:35:36.123Z,3.23
2023-01-23T09:36:42.994Z,3.13
2023-01-23T09:37:36.100Z,3.20
2023-01-23T09:38:36.193Z,3.31
2023-01-23T09:39:36.299Z,3.33
2023-01-23T09:40:36.092Z,3.21
2023-01-23T09:41:36.050Z,3.24
2023-01-23T09:42:36.041Z,3.29
2023-01-23T09:43:36.060Z,3.26
2023-01-23T09:44:36.085Z,3.28
2023-01-23T09:45:36.034Z,3.31
2023-01-23T09:46:36.020Z,3.33
2023-01-23T09:47:35.987Z,3.40
2023-01-23T09:48:35.976Z,3.39
2023-01-23T09:49:35.996Z,3.39
2023-01-23T09:50:35.997Z,3.42
2023-01-23T09:51:35.927Z,3.39
2023-01-23T09:52:35.986Z,3.35
2023-01-23T09:53:35.930Z,3.39
2023-01-23T09:54:36.030Z,3.48
2023-01-23T09:55:35.918Z,3.43
2023-01-23T09:56:35.892Z,3.43
2023-01-23T09:57:35.914Z,3.48
2023-01-23T09:58:35.937Z,3.51
2023-01-23T09:59:37.607Z,3.52
2023-01-23T10:00:35.851Z,3.52
2023-01-23T10:01:35.827Z,3.51
2023-01-23T10:02:35.881Z,3.52
2023-01-23T10:03:35.826Z,3.54
2023-01-23T10:04:35.796Z,3.50
2023-01-23T10:05:35.811Z,3.57
2023-01-23T10:06:35.846Z,3.50
2023-01-23T10:07:35.799Z,3.55
2023-01-23T10:08:35.785Z,3.54
2023-01-23T10:09:35.749Z,3.57
2023-01-23T10:10:35.845Z,3.57
2023-01-23T10:11:35.753Z,3.54
2023-01-23T10:12:35.736Z,3.66
2023-01-23T10:13:35.694Z,3.66
2023-01-23T10:14:36.661Z,3.61
2023-01-23T10:15:35.675Z,3.76
2023-01-23T10:16:49.593Z,3.73
2023-01-23T10:17:36.708Z,3.75
2023-01-23T10:18:35.708Z,3.69
2023-01-23T10:19:35.618Z,3.79
2023-01-23T10:20:35.619Z,3.78
2023-01-23T10:21:35.621Z,3.88
2023-01-23T10:22:35.633Z,3.80
2023-01-23T10:23:35.598Z,3.84
2023-01-23T10:24:40.176Z,3.78
2023-01-23T10:25:35.594Z,3.76
2023-01-23T10:26:35.589Z,3.83
2023-01-23T10:27:35.558Z,3.78
2023-01-23T10:28:35.544Z,3.80
2023-01-23T10:29:35.547Z,3.79
2023-01-23T10:30:35.669Z,3.76
2023-01-23T10:31:35.623Z,3.72
2023-01-23T10:32:35.520Z,3.75
2023-01-23T10:33:35.470Z,3.68
2023-01-23T10:34:35.492Z,3.72
2023-01-23T10:35:35.462Z,3.79
2023-01-23T10:36:47.441Z,3.80
2023-01-23T10:37:36.463Z,3.80
2023-01-23T10:38:35.419Z,3.79
2023-01-23T10:39:35.439Z,3.76
2023-01-23T10:40:35.432Z,3.79
2023-01-23T10:41:35.385Z,3.79
2023-01-23T10:42:35.509Z,3.90
2023-01-23T10:43:35.363Z,3.76
2023-01-23T10:44:35.373Z,3.84
2023-01-23T10:45:35.353Z,3.80
2023-01-23T10:46:35.443Z,3.78
2023-01-23T10:47:35.671Z,3.75
2023-01-23T10:48:35.314Z,3.78
2023-01-23T10:49:35.467Z,3.75
2023-01-23T10:50:35.320Z,3.79
2023-01-23T10:51:35.396Z,3.79
2023-01-23T10:52:35.295Z,3.75
2023-01-23T10:53:35.278Z,3.79
2023-01-23T10:54:35.251Z,3.88
2023-01-23T10:55:35.249Z,3.78
2023-01-23T10:56:35.291Z,3.84
2023-01-23T10:57:35.225Z,3.79
2023-01-23T10:58:35.319Z,3.88
2023-01-23T10:59:35.233Z,3.87
2023-01-23T11:00:35.190Z,3.79
2023-01-23T11:01:35.218Z,3.78
2023-01-23T11:02:35.320Z,3.94
2023-01-23T11:03:35.227Z,3.98
2023-01-23T11:04:35.164Z,3.97
2023-01-23T11:05:46.571Z,3.93
2023-01-23T11:06:36.129Z,3.94
2023-01-23T11:07:35.270Z,3.90
2023-01-23T11:08:35.105Z,3.87
2023-01-23T11:09:35.074Z,3.79
2023-01-23T11:10:35.091Z,3.94
2023-01-23T11:11:35.070Z,3.90
2023-01-23T11:12:35.111Z,3.91
2023-01-23T11:13:35.057Z,3.93
2023-01-23T11:14:35.167Z,3.97
2023-01-23T11:15:35.050Z,3.96
2023-01-23T11:16:35.011Z,3.93
2023-01-23T11:17:34.994Z,4.04
2023-01-23T11:18:35.002Z,3.97
2023-01-23T11:19:34.995Z,4.02
2023-01-23T11:20:34.974Z,3.94
2023-01-23T11:21:34.970Z,4.06
2023-01-23T11:22:34.964Z,4.08
2023-01-23T11:23:34.954Z,4.04
2023-01-23T11:24:40.210Z,4.08
2023-01-23T11:25:35.924Z,4.11
2023-01-23T11:26:34.898Z,4.15
2023-01-23T11:27:34.882Z,4.05
2023-01-23T11:28:34.933Z,4.26
2023-01-23T11:29:34.865Z,4.23
2023-01-23T11:30:34.986Z,4.15
2023-01-23T11:31:34.962Z,4.16
2023-01-23T11:32:34.867Z,4.20
2023-01-23T11:33:34.928Z,4.08
2023-01-23T11:34:34.809Z,4.02
2023-01-23T11:35:34.806Z,4.09
2023-01-23T11:36:34.815Z,4.22
2023-01-23T11:37:34.779Z,4.16
2023-01-23T11:38:35.923Z,4.22
2023-01-23T11:39:34.770Z,4.04
2023-01-23T11:40:34.773Z,4.06
2023-01-23T11:41:34.816Z,4.18
2023-01-23T11:42:34.752Z,4.12
2023-01-23T11:43:34.722Z,4.14
2023-01-23T11:44:41.492Z,4.18
2023-01-23T11:45:35.707Z,4.26
2023-01-23T11:46:34.935Z,4.11
2023-01-23T11:47:34.682Z,4.15
2023-01-23T11:48:34.668Z,4.12
2023-01-23T11:49:34.705Z,4.20
2023-01-23T11:50:37.169Z,4.05
2023-01-23T11:51:35.756Z,4.23
2023-01-23T11:52:34.649Z,4.22
2023-01-23T11:53:42.299Z,4.15
2023-01-23T11:54:35.603Z,4.15
2023-01-23T11:55:35.017Z,4.14
2023-01-23T11:56:34.603Z,4.16
2023-01-23T11:57:34.571Z,4.22
2023-01-23T11:58:39.697Z,4.16
2023-01-23T11:59:35.536Z,4.18
2023-01-23T12:00:34.536Z,4.14
2023-01-23T12:01:34.549Z,4.14
2023-01-23T12:02:34.696Z,4.15
2023-01-23T12:03:34.565Z,4.15
2023-01-23T12:04:34.491Z,4.20
2023-01-23T12:05:34.476Z,4.14
2023-01-23T12:06:34.496Z,4.23
2023-01-23T12:07:34.456Z,4.29
2023-01-23T12:08:34.438Z,4.29
2023-01-23T12:09:34.447Z,4.29
2023-01-23T12:10:34.430Z,4.33
2023-01-23T12:11:34.425Z,4.27
2023-01-23T12:12:34.411Z,4.27
2023-01-23T12:13:34.389Z,4.23
2023-01-23T12:14:34.385Z,4.16
2023-01-23T12:15:34.371Z,4.09
2023-01-23T12:16:34.418Z,4.22
2023-01-23T12:17:34.407Z,4.18
2023-01-23T12:18:35.274Z,4.16
2023-01-23T12:19:34.374Z,4.24
2023-01-23T12:20:34.319Z,4.27
2023-01-23T12:21:34.318Z,4.33
2023-01-23T12:22:34.299Z,4.27
2023-01-23T12:23:34.277Z,4.30
2023-01-23T12:24:34.268Z,4.30
2023-01-23T12:25:34.288Z,4.29
2023-01-23T12:26:34.248Z,4.29
2023-01-23T12:27:34.286Z,4.29
2023-01-23T12:28:34.265Z,4.23
2023-01-23T12:29:34.245Z,4.54
2023-01-23T12:30:34.265Z,4.50
2023-01-23T12:31:34.310Z,4.51
2023-01-23T12:32:34.202Z,4.54
2023-01-23T12:33:34.186Z,4.52
2023-01-23T12:34:34.287Z,4.50
2023-01-23T12:35:34.163Z,4.48
2023-01-23T12:36:40.340Z,4.41
2023-01-23T12:37:35.150Z,4.37
2023-01-23T12:38:34.129Z,4.36
2023-01-23T12:39:34.113Z,4.45
2023-01-23T12:40:34.103Z,4.40
2023-01-23T12:41:34.096Z,4.41
2023-01-23T12:42:34.112Z,4.48
2023-01-23T12:43:34.064Z,4.41
2023-01-23T12:44:34.066Z,4.52
2023-01-23T12:45:34.054Z,4.40
2023-01-23T12:46:34.115Z,4.58
2023-01-23T12:47:34.066Z,4.50
2023-01-23T12:48:34.017Z,4.58
2023-01-23T12:49:34.027Z,4.54
2023-01-23T12:50:34.104Z,4.58
2023-01-23T12:51:34.077Z,4.51
2023-01-23T12:52:33.979Z,4.50
2023-01-23T12:53:33.986Z,4.58
2023-01-23T12:54:33.960Z,4.54
2023-01-23T12:55:33.939Z,4.54
2023-01-23T12:56:33.982Z,4.59
2023-01-23T12:57:45.946Z,4.51
2023-01-23T12:58:34.918Z,4.52
2023-01-23T12:59:33.932Z,4.51
2023-01-23T13:00:33.926Z,4.55
2023-01-23T13:01:33.879Z,4.52
2023-01-23T13:02:33.864Z,4.59
2023-01-23T13:03:44.870Z,4.54
2023-01-23T13:04:34.868Z,4.51
2023-01-23T13:05:33.861Z,4.54
2023-01-23T13:06:33.925Z,4.54
2023-01-23T13:07:33.813Z,4.50
2023-01-23T13:08:38.135Z,4.54
2023-01-23T13:09:34.787Z,4.51
2023-01-23T13:10:33.786Z,4.50
2023-01-23T13:11:33.784Z,4.41
2023-01-23T13:12:33.752Z,4.51
2023-01-23T13:13:33.739Z,4.47
2023-01-23T13:14:47.777Z,4.41
2023-01-23T13:15:40.324Z,4.58
2023-01-23T13:16:34.761Z,4.48
2023-01-23T13:17:33.714Z,4.48
2023-01-23T13:18:33.790Z,4.45